Time;durP1;ratioP1;P1;durP2;ratioP2;P2;SDS_P1;SDS_P2;PMS_P1;PMS_P2;Temp;Humidity;BMP_temperature;BMP_pressure;BME280_temperature;BME280_humidity;BME280_pressure;Samples;Min_cycle;Max_cycle;Signal;HPM_P1;HPM_P2
2022/04/16 00:01:42;;;;;;;;;;;;;;;8.08;62.81;102525.81;4918121;29;2066;-96
2022/04/16 00:04:09;;;;;;;;;;;;;;;8.06;63.07;102514.41;4914115;29;1907;-95
2022/04/16 00:06:35;;;;;;;;;;;;;;;8.06;62.82;102524.28;4917004;29;1573;-95
2022/04/16 00:09:02;;;;;;;;;;;;;;;8.04;62.84;102518.25;4920269;29;1289;-96
2022/04/16 00:11:28;;;;;;;;;;;;;;;8.03;63.00;102519.22;4918801;29;2088;-95
2022/04/16 00:13:55;;;;;;;;;;;;;;;8.02;62.82;102530.97;4917924;29;2321;-96
2022/04/16 00:16:21;;;;;;;;;;;;;;;8.01;62.74;102524.75;4918548;29;2357;-96
2022/04/16 00:18:48;;;;;;;;;;;;;;;7.99;62.74;102528.59;4919727;29;1259;-96
2022/04/16 00:21:15;;;;;;;;;;;;;;;7.97;62.72;102534.09;4915346;29;2248;-95
2022/04/16 00:23:42;;;;;;;;;;;;;;;7.96;62.50;102527.88;4901189;29;1907;-96
2022/04/16 00:26:11;;;;;;;;;;;;;;;7.94;62.77;102534.41;4913668;29;2462;-95
2022/04/16 00:28:38;;;;;;;;;;;;;;;7.94;62.75;102534.41;4919100;29;2116;-96
2022/04/16 00:31:05;;;;;;;;;;;;;;;7.92;62.76;102539.94;4912098;29;2127;-96
2022/04/16 00:33:32;;;;;;;;;;;;;;;7.92;62.44;102537.25;4915502;29;4269;-95
2022/04/16 00:35:58;;;;;;;;;;;;;;;7.90;62.84;102538.41;4919334;29;1181;-96
2022/04/16 00:38:25;;;;;;;;;;;;;;;7.90;62.42;102543.75;4919305;29;1355;-96
2022/04/16 00:40:52;;;;;;;;;;;;;;;7.88;62.70;102537.69;4923997;29;2138;-95
2022/04/16 00:43:19;;;;;;;;;;;;;;;7.88;62.90;102545.75;4917936;29;1974;-96
2022/04/16 00:45:47;;;;;;;;;;;;;;;7.84;62.57;102534.50;4919452;29;1297;-95
2022/04/16 00:48:13;;;;;;;;;;;;;;;7.83;62.89;102534.66;4919320;29;1362;-95
2022/04/16 00:50:40;;;;;;;;;;;;;;;7.81;62.55;102540.16;4916614;29;1408;-96
2022/04/16 00:53:07;;;;;;;;;;;;;;;7.81;62.42;102540.16;4934412;29;2128;-95
2022/04/16 00:55:33;;;;;;;;;;;;;;;7.79;62.69;102550.19;4929568;29;2281;-96
2022/04/16 00:58:00;;;;;;;;;;;;;;;7.78;62.81;102551.19;4918174;29;2105;-95
2022/04/16 01:00:26;;;;;;;;;;;;;;;7.77;62.89;102556.72;4912100;29;4503;-96
2022/04/16 01:02:53;;;;;;;;;;;;;;;7.76;62.41;102560.38;4902211;29;2629;-96
2022/04/16 01:05:21;;;;;;;;;;;;;;;7.74;62.70;102563.25;4915990;29;1361;-96
2022/04/16 01:07:48;;;;;;;;;;;;;;;7.72;62.78;102559.84;4918324;29;1407;-96
2022/04/16 01:10:14;;;;;;;;;;;;;;;7.70;62.30;102554.63;4918072;29;2194;-96
2022/04/16 01:12:43;;;;;;;;;;;;;;;7.72;62.27;102557.19;4902930;29;1382;-96
2022/04/16 01:15:11;;;;;;;;;;;;;;;7.69;62.37;102560.16;4915788;29;2314;-95
2022/04/16 01:17:37;;;;;;;;;;;;;;;7.68;62.36;102558.47;4918698;29;1198;-95
2022/04/16 01:20:04;;;;;;;;;;;;;;;7.66;62.39;102558.63;4926375;29;2484;-96
2022/04/16 01:22:31;;;;;;;;;;;;;;;7.65;62.29;102556.94;4920674;29;2227;-96
2022/04/16 01:24:59;;;;;;;;;;;;;;;7.65;62.42;102554.25;4916159;29;2350;-96
2022/04/16 01:27:26;;;;;;;;;;;;;;;7.63;62.64;102548.19;4918988;29;1365;-96
2022/04/16 01:29:53;;;;;;;;;;;;;;;7.62;62.13;102554.56;4917632;29;2365;-96
2022/04/16 01:32:20;;;;;;;;;;;;;;;7.61;62.16;102560.06;4918381;29;1299;-96
2022/04/16 01:34:47;;;;;;;;;;;;;;;7.57;62.33;102556.84;4918569;29;1372;-96
2022/04/16 01:37:13;;;;;;;;;;;;;;;7.57;62.30;102554.16;4920369;29;1267;-96
2022/04/16 01:39:40;;;;;;;;;;;;;;;7.57;62.26;102556.00;4921520;29;1210;-96
2022/04/16 01:42:07;;;;;;;;;;;;;;;7.56;62.11;102551.63;4920859;29;2091;-96
2022/04/16 01:44:34;;;;;;;;;;;;;;;7.55;61.98;102552.63;4920792;29;2099;-96
2022/04/16 01:47:00;;;;;;;;;;;;;;;7.53;62.35;102550.13;4921581;29;1212;-96
2022/04/16 01:49:27;;;;;;;;;;;;;;;7.52;62.29;102556.44;4917718;29;1374;-96
2022/04/16 01:51:54;;;;;;;;;;;;;;;7.50;62.21;102550.41;4920505;29;2357;-96
2022/04/16 01:54:21;;;;;;;;;;;;;;;7.47;62.18;102546.19;4921479;29;1330;-96
2022/04/16 01:56:47;;;;;;;;;;;;;;;7.47;61.96;102550.69;4921703;29;1260;-96
2022/04/16 01:59:14;;;;;;;;;;;;;;;7.46;62.19;102546.34;4930198;29;2309;-96
2022/04/16 02:01:40;;;;;;;;;;;;;;;7.46;62.05;102551.69;4921351;29;1253;-96
2022/04/16 02:04:07;;;;;;;;;;;;;;;7.45;62.03;102550.03;4921444;29;1972;-96
2022/04/16 02:06:35;;;;;;;;;;;;;;;7.43;62.08;102547.47;4921520;29;1306;-95
2022/04/16 02:09:03;;;;;;;;;;;;;;;7.41;61.76;102551.28;4921108;29;1382;-96
2022/04/16 02:11:29;;;;;;;;;;;;;;;7.40;62.21;102555.81;4904769;29;1245;-96
2022/04/16 02:13:55;;;;;;;;;;;;;;;7.39;61.71;102556.81;4920623;29;2166;-95
2022/04/16 02:16:22;;;;;;;;;;;;;;;7.37;62.05;102556.13;4920476;29;2268;-95
2022/04/16 02:18:49;;;;;;;;;;;;;;;7.35;61.96;102549.22;4956184;29;2621;-95
2022/04/16 02:21:16;;;;;;;;;;;;;;;7.35;62.03;102559.94;4940222;29;1191;-96
2022/04/16 02:23:43;;;;;;;;;;;;;;;7.34;61.89;102553.75;4940750;29;1979;-96
2022/04/16 02:26:09;;;;;;;;;;;;;;;7.32;61.95;102553.03;4933813;29;1199;-96
2022/04/16 02:28:36;;;;;;;;;;;;;;;7.30;61.79;102549.69;4923892;29;2449;-95
2022/04/16 02:31:02;;;;;;;;;;;;;;;7.30;61.96;102551.53;4943999;29;1381;-96
2022/04/16 02:33:30;;;;;;;;;;;;;;;7.28;61.68;102548.97;4906394;29;1332;-96
2022/04/16 02:35:57;;;;;;;;;;;;;;;7.27;61.95;102556.19;4918964;29;1314;-96
2022/04/16 02:38:23;;;;;;;;;;;;;;;7.26;61.96;102548.28;4920052;29;2077;-96
2022/04/16 02:40:50;;;;;;;;;;;;;;;7.25;61.94;102541.25;4920282;29;2308;-96
2022/04/16 02:43:17;;;;;;;;;;;;;;;7.21;61.72;102551.41;4937715;29;1910;-96
2022/04/16 02:48:29;;;;;;;;;;;;;;;7.18;61.77;102542.84;4917477;29;3516;-96
2022/04/16 02:50:55;;;;;;;;;;;;;;;7.16;61.57;102547.50;4924466;29;1299;-96
2022/04/16 02:53:22;;;;;;;;;;;;;;;7.16;61.56;102551.00;4923833;29;2339;-96
2022/04/16 02:55:48;;;;;;;;;;;;;;;7.16;61.68;102550.19;4921397;29;3712;-96
2022/04/16 02:58:14;;;;;;;;;;;;;;;7.14;61.81;102550.31;4921957;29;2232;-96
2022/04/16 03:00:41;;;;;;;;;;;;;;;7.13;61.63;102555.84;4911984;29;3755;-96
2022/04/16 03:03:09;;;;;;;;;;;;;;;7.11;61.67;102558.66;4922461;29;1437;-95
2022/04/16 03:05:35;;;;;;;;;;;;;;;7.10;61.27;102556.97;4956463;29;1910;-96
2022/04/16 03:08:02;;;;;;;;;;;;;;;7.11;61.49;102555.13;4922324;29;2350;-95
2022/04/16 03:10:29;;;;;;;;;;;;;;;7.10;61.29;102558.81;4923322;29;2099;-96
2022/04/16 03:12:56;;;;;;;;;;;;;;;7.06;61.31;102550.22;4924083;29;1309;-96
2022/04/16 03:18:08;;;;;;;;;;;;;;;7.01;61.69;102552.50;4924430;29;1157;-95
2022/04/16 03:20:37;;;;;;;;;;;;;;;7.00;61.57;102556.16;4934692;29;1191;-96
2022/04/16 03:23:03;;;;;;;;;;;;;;;6.98;61.68;102553.63;4924089;29;1227;-96
2022/04/16 03:25:30;;;;;;;;;;;;;;;6.96;61.29;102560.13;4924457;29;1972;-96
2022/04/16 03:27:56;;;;;;;;;;;;;;;6.95;61.74;102563.81;4921440;29;2289;-96
2022/04/16 03:30:24;;;;;;;;;;;;;;;6.93;61.28;102565.78;4923137;29;2342;-96
2022/04/16 03:32:50;;;;;;;;;;;;;;;6.91;61.23;102560.59;4923638;29;1308;-96
2022/04/16 03:35:17;;;;;;;;;;;;;;;6.90;61.51;102558.03;4923855;29;1200;-96
2022/04/16 03:37:44;;;;;;;;;;;;;;;6.88;61.29;102552.81;4923401;29;1327;-96
2022/04/16 03:40:10;;;;;;;;;;;;;;;6.88;61.39;102552.81;4927710;29;1345;-96
2022/04/16 03:42:37;;;;;;;;;;;;;;;6.87;61.25;102547.63;4923484;29;1398;-96
2022/04/16 03:45:03;;;;;;;;;;;;;;;6.85;61.31;102546.91;4927037;29;2239;-96
2022/04/16 03:47:30;;;;;;;;;;;;;;;6.83;61.38;102553.28;4926867;29;1253;-96
2022/04/16 03:49:57;;;;;;;;;;;;;;;6.82;61.12;102556.06;4913195;29;1425;-96
2022/04/16 03:52:23;;;;;;;;;;;;;;;6.81;61.50;102549.88;4923326;29;1378;-95
2022/04/16 04:00:18;;;;;;;;;;;;;;;6.78;60.96;102562.72;4923436;29;2537;-96
2022/04/16 04:02:45;;;;;;;;;;;;;;;6.78;61.08;102565.41;4923378;29;1208;-96
2022/04/16 04:05:11;;;;;;;;;;;;;;;6.76;61.00;102567.38;4923317;29;1906;-96
2022/04/16 04:07:38;;;;;;;;;;;;;;;6.76;60.89;102562.03;4923046;29;2408;-96
2022/04/16 04:10:04;;;;;;;;;;;;;;;6.73;60.82;102562.31;4923901;29;1197;-96
2022/04/16 04:12:31;;;;;;;;;;;;;;;6.74;61.24;102564.03;4923150;29;1358;-96
2022/04/16 04:14:58;;;;;;;;;;;;;;;6.72;60.97;102566.00;4922420;29;2343;-96
2022/04/16 04:17:25;;;;;;;;;;;;;;;6.69;60.89;102566.28;4923304;29;1317;-96
2022/04/16 04:19:51;;;;;;;;;;;;;;;6.68;60.82;102565.44;4923466;29;1198;-96
2022/04/16 04:22:18;;;;;;;;;;;;;;;6.67;60.93;102557.53;4923155;29;1233;-96
2022/04/16 04:24:45;;;;;;;;;;;;;;;6.65;61.00;102554.16;4920279;29;2370;-96
2022/04/16 04:27:11;;;;;;;;;;;;;;;6.63;61.03;102554.31;4923070;29;1179;-96
2022/04/16 04:29:38;;;;;;;;;;;;;;;6.60;61.26;102558.13;4919347;29;2452;-96
2022/04/16 04:32:05;;;;;;;;;;;;;;;6.57;61.24;102558.41;4904292;29;1320;-96
2022/04/16 04:34:31;;;;;;;;;;;;;;;6.55;61.19;102563.06;4913289;29;1328;-96
2022/04/16 04:36:58;;;;;;;;;;;;;;;6.54;60.98;102565.91;4919435;29;1311;-96
2022/04/16 04:39:24;;;;;;;;;;;;;;;6.52;61.18;102558.00;4921949;29;2344;-96
2022/04/16 04:41:51;;;;;;;;;;;;;;;6.50;60.96;102570.69;4921719;29;2340;-96
2022/04/16 04:44:17;;;;;;;;;;;;;;;6.50;60.92;102564.47;4922105;29;2255;-96
2022/04/16 04:46:44;;;;;;;;;;;;;;;6.48;61.29;102566.47;4906449;29;2061;-96
2022/04/16 04:49:11;;;;;;;;;;;;;;;6.46;61.20;102568.44;4918229;29;3743;-96
2022/04/16 04:51:37;;;;;;;;;;;;;;;6.45;61.27;102564.94;4925703;29;5375;-96
2022/04/16 04:54:04;;;;;;;;;;;;;;;6.44;60.95;102575.75;4929127;29;2074;-94
2022/04/16 04:56:30;;;;;;;;;;;;;;;6.42;60.81;102573.25;4910069;29;3348;-95
2022/04/16 04:58:57;;;;;;;;;;;;;;;6.41;60.89;102571.53;4909168;29;4077;-95
2022/04/16 05:01:23;;;;;;;;;;;;;;;6.40;61.27;102577.03;4920948;29;2030;-96
2022/04/16 05:03:50;;;;;;;;;;;;;;;6.40;61.06;102577.03;4920222;29;3700;-96
2022/04/16 05:06:16;;;;;;;;;;;;;;;6.37;61.26;102576.34;4919574;29;1974;-96
2022/04/16 05:08:43;;;;;;;;;;;;;;;6.35;60.98;102580.13;4914510;29;3597;-96
2022/04/16 05:11:10;;;;;;;;;;;;;;;6.34;61.03;102578.47;4921786;29;1770;-96
2022/04/16 05:13:36;;;;;;;;;;;;;;;6.34;61.14;102578.47;4915699;29;2345;-96
2022/04/16 05:16:03;;;;;;;;;;;;;;;6.34;61.07;102583.81;4920631;29;1911;-96
2022/04/16 05:18:29;;;;;;;;;;;;;;;6.32;61.07;102580.44;4922623;29;1320;-96
2022/04/16 05:20:56;;;;;;;;;;;;;;;6.32;61.18;102583.97;4919417;29;2399;-96
2022/04/16 05:23:23;;;;;;;;;;;;;;;6.31;60.81;102579.59;4923817;29;2295;-96
2022/04/16 05:25:50;;;;;;;;;;;;;;;6.29;61.07;102581.56;4922332;29;1907;-96
2022/04/16 05:28:17;;;;;;;;;;;;;;;6.28;60.72;102579.88;4921353;29;2275;-96
2022/04/16 05:30:48;;;;;;;;;;;;;;;6.27;61.08;102588.06;4922310;29;1190;-96
2022/04/16 05:34:18;;;;;;;;;;;;;;;6.26;60.85;102581.84;4921746;29;1328;-96
2022/04/16 05:36:04;;;;;;;;;;;;;;;6.26;60.67;102581.00;4910811;29;2814;-95
2022/04/16 05:38:30;;;;;;;;;;;;;;;6.24;60.86;102580.31;4917891;29;4234;-95
2022/04/16 05:40:58;;;;;;;;;;;;;;;6.23;60.62;102579.44;4921565;29;4963;-95
2022/04/16 05:43:24;;;;;;;;;;;;;;;6.24;60.86;102585.66;4939909;29;3914;-96
2022/04/16 05:45:51;;;;;;;;;;;;;;;6.22;60.98;102576.94;4916475;29;3977;-95
2022/04/16 05:48:17;;;;;;;;;;;;;;;6.21;60.57;102580.59;4904618;29;1199;-95
2022/04/16 05:50:44;;;;;;;;;;;;;;;6.20;60.75;102576.22;4911563;29;4007;-94
2022/04/16 05:53:11;;;;;;;;;;;;;;;6.20;60.88;102586.91;4918245;29;1187;-94
2022/04/16 05:55:37;;;;;;;;;;;;;;;6.20;60.68;102582.41;4909959;29;3783;-94
2022/04/16 05:58:03;;;;;;;;;;;;;;;6.19;60.73;102587.91;4935648;29;3666;-94
2022/04/16 06:00:30;;;;;;;;;;;;;;;6.19;60.75;102590.59;4917987;29;1203;-94
2022/04/16 06:02:57;;;;;;;;;;;;;;;6.18;60.68;102588.88;4926823;29;3578;-94
2022/04/16 06:05:23;;;;;;;;;;;;;;;6.18;60.23;102583.53;4951421;29;1907;-94
2022/04/16 06:07:50;;;;;;;;;;;;;;;6.16;60.31;102591.72;4910538;29;3716;-94
2022/04/16 06:10:16;;;;;;;;;;;;;;;6.17;60.53;102589.88;4917375;29;3297;-94
2022/04/16 06:12:43;;;;;;;;;;;;;;;6.16;60.32;102586.34;4906838;29;3967;-94
2022/04/16 06:15:09;;;;;;;;;;;;;;;6.16;60.60;102586.34;4913134;29;1361;-93
2022/04/16 06:17:36;;;;;;;;;;;;;;;6.14;60.34;102591.00;4952692;29;2142;-93
2022/04/16 06:20:03;;;;;;;;;;;;;;;6.13;60.36;102594.66;4918600;29;2694;-93
2022/04/16 06:22:30;;;;;;;;;;;;;;;6.10;60.23;102590.44;4919206;29;4364;-93
2022/04/16 06:24:57;;;;;;;;;;;;;;;6.11;60.56;102594.78;4917840;29;4877;-93
2022/04/16 06:27:23;;;;;;;;;;;;;;;6.11;60.26;102596.63;4915598;29;3931;-93
2022/04/16 06:29:50;;;;;;;;;;;;;;;6.09;60.37;102594.13;4919564;29;1773;-93
2022/04/16 06:32:17;;;;;;;;;;;;;;;6.09;60.20;102595.94;4909560;29;3654;-93
2022/04/16 06:34:43;;;;;;;;;;;;;;;6.09;60.42;102593.28;4920945;29;1233;-92
2022/04/16 06:37:09;;;;;;;;;;;;;;;6.07;60.15;102596.06;4921540;29;4021;-93
2022/04/16 06:39:36;;;;;;;;;;;;;;;6.07;60.31;102587.22;4931631;29;3730;-93
2022/04/16 06:42:02;;;;;;;;;;;;;;;6.06;60.06;102590.84;4925127;29;4072;-91
2022/04/16 06:44:29;;;;;;;;;;;;;;;6.06;60.38;102598.88;4916100;29;2472;-93
2022/04/16 06:46:55;;;;;;;;;;;;;;;6.05;60.38;102597.19;4937135;29;2531;-93
2022/04/16 06:49:22;;;;;;;;;;;;;;;6.04;60.19;102592.84;4925643;29;2577;-94
2022/04/16 06:51:48;;;;;;;;;;;;;;;6.02;60.40;102587.63;4918779;29;2368;-94
2022/04/16 06:54:15;;;;;;;;;;;;;;;6.01;60.13;102591.28;4920657;29;1343;-95
2022/04/16 06:56:42;;;;;;;;;;;;;;;6.02;60.10;102594.81;4915369;29;2413;-94
2022/04/16 06:59:09;;;;;;;;;;;;;;;6.01;60.18;102591.28;4925654;29;2359;-94
2022/04/16 07:01:35;;;;;;;;;;;;;;;6.01;60.04;102593.13;4911716;29;2309;-93
2022/04/16 07:04:02;;;;;;;;;;;;;;;6.00;60.26;102588.75;4911821;29;4837;-96
2022/04/16 07:06:28;;;;;;;;;;;;;;;6.00;60.16;102594.97;4913877;29;2408;-95
2022/04/16 07:08:55;;;;;;;;;;;;;;;6.00;59.95;102580.72;4917263;29;2589;-95
2022/04/16 07:11:22;;;;;;;;;;;;;;;5.99;60.11;102577.19;4919898;29;2059;-95
2022/04/16 07:13:48;;;;;;;;;;;;;;;5.98;59.80;102578.19;4921478;29;1367;-95
2022/04/16 07:16:15;;;;;;;;;;;;;;;6.00;60.12;102583.38;4916854;29;2597;-95
2022/04/16 07:18:41;;;;;;;;;;;;;;;6.00;60.00;102578.03;4920624;29;1182;-94
2022/04/16 07:21:08;;;;;;;;;;;;;;;5.98;59.94;102580.03;4920379;29;1298;-95
2022/04/16 07:23:34;;;;;;;;;;;;;;;5.98;60.00;102578.19;4916822;29;2070;-95
2022/04/16 07:26:01;;;;;;;;;;;;;;;5.98;59.83;102575.53;4925860;29;2477;-95
2022/04/16 07:28:27;;;;;;;;;;;;;;;5.99;59.98;102571.84;4952462;29;1284;-95
2022/04/16 07:30:54;;;;;;;;;;;;;;;5.97;59.92;102576.50;4922252;29;1442;-94
2022/04/16 07:33:21;;;;;;;;;;;;;;;5.97;60.04;102568.50;4923839;29;1283;-95
2022/04/16 07:35:48;;;;;;;;;;;;;;;5.98;59.92;102572.00;4923530;29;1330;-95
2022/04/16 07:38:14;;;;;;;;;;;;;;;5.97;60.02;102578.31;4922934;29;2279;-95
2022/04/16 07:40:41;;;;;;;;;;;;;;;5.97;59.89;102573.84;4922860;29;2295;-95
2022/04/16 07:43:07;;;;;;;;;;;;;;;5.99;59.85;102582.56;4955767;29;1375;-95
2022/04/16 07:45:34;;;;;;;;;;;;;;;5.98;59.68;102566.66;4948802;29;2120;-95
2022/04/16 07:48:01;;;;;;;;;;;;;;;5.98;59.87;102569.34;4920408;29;1281;-95
2022/04/16 07:50:27;;;;;;;;;;;;;;;5.98;59.91;102574.69;4922690;29;2305;-95
2022/04/16 07:52:54;;;;;;;;;;;;;;;5.97;59.96;102571.16;4920546;29;1388;-95
2022/04/16 07:55:20;;;;;;;;;;;;;;;5.99;59.88;102576.34;4935267;29;2319;-95
2022/04/16 07:57:48;;;;;;;;;;;;;;;5.99;59.71;102573.69;4924301;29;2317;-95
2022/04/16 08:00:15;;;;;;;;;;;;;;;5.98;59.92;102572.00;4923619;29;1306;-94
2022/04/16 08:02:41;;;;;;;;;;;;;;;5.99;59.90;102568.34;4923529;29;1238;-94
2022/04/16 08:05:08;;;;;;;;;;;;;;;5.99;60.00;102560.31;4930465;29;2136;-95
2022/04/16 08:07:34;;;;;;;;;;;;;;;6.00;59.67;102575.38;4955222;29;1277;-95
2022/04/16 08:10:01;;;;;;;;;;;;;;;6.00;59.58;102570.00;4954892;29;1286;-96
2022/04/16 08:12:28;;;;;;;;;;;;;;;6.00;59.65;102570.00;4922488;29;2348;-94
2022/04/16 08:14:54;;;;;;;;;;;;;;;6.00;59.79;102567.34;4936857;29;2433;-96
2022/04/16 08:17:21;;;;;;;;;;;;;;;6.02;59.42;102565.38;4925788;29;2342;-95
2022/04/16 08:19:47;;;;;;;;;;;;;;;6.01;59.73;102561.03;4922980;29;1258;-94
2022/04/16 08:22:18;;;;;;;;;;;;;;;6.01;59.79;102569.03;4922987;29;1278;-95
2022/04/16 08:24:53;;;;;;;;;;;;;;;6.01;59.78;102564.53;4907577;29;1954;-95
2022/04/16 08:27:20;;;;;;;;;;;;;;;6.01;59.78;102567.22;4916304;29;2342;-96
2022/04/16 08:29:47;;;;;;;;;;;;;;;6.02;59.50;102562.69;4922705;29;1308;-94
2022/04/16 08:32:13;;;;;;;;;;;;;;;6.02;59.83;102563.53;4923117;29;1234;-95
2022/04/16 08:34:40;;;;;;;;;;;;;;;6.03;59.77;102565.25;4922495;29;1673;-95
2022/04/16 08:37:07;;;;;;;;;;;;;;;6.04;59.54;102558.06;4922760;29;1343;-95
2022/04/16 08:39:33;;;;;;;;;;;;;;;6.04;59.70;102566.09;4922820;29;1370;-95
2022/04/16 08:42:00;;;;;;;;;;;;;;;6.04;59.65;102563.41;4936742;29;2059;-95
2022/04/16 08:44:27;;;;;;;;;;;;;;;6.06;59.51;102561.41;4931682;29;2649;-95
2022/04/16 08:46:53;;;;;;;;;;;;;;;6.08;59.76;102559.47;4949222;29;1915;-96
2022/04/16 08:49:20;;;;;;;;;;;;;;;6.08;59.68;102557.63;4903951;29;1349;-96
2022/04/16 08:51:47;;;;;;;;;;;;;;;6.09;59.73;102558.50;4922241;29;1293;-96
2022/04/16 08:54:13;;;;;;;;;;;;;;;6.10;59.46;102561.00;4919219;29;1756;-95
2022/04/16 08:56:40;;;;;;;;;;;;;;;6.10;59.55;102547.63;4911093;29;4684;-95
2022/04/16 08:59:06;;;;;;;;;;;;;;;6.11;59.48;102551.16;4922045;29;1303;-95
2022/04/16 09:01:33;;;;;;;;;;;;;;;6.12;59.69;102560.88;4921680;29;2383;-96
2022/04/16 09:04:00;;;;;;;;;;;;;;;6.12;59.74;102552.88;4918406;29;2784;-95
2022/04/16 09:06:27;;;;;;;;;;;;;;;6.13;59.57;102550.03;4920258;29;2051;-94
2022/04/16 09:08:54;;;;;;;;;;;;;;;6.13;59.75;102558.06;4922548;29;1399;-95
2022/04/16 09:11:21;;;;;;;;;;;;;;;6.15;59.76;102555.25;4921289;29;2292;-95
2022/04/16 09:13:47;;;;;;;;;;;;;;;6.17;59.39;102557.78;4925417;29;2279;-96
2022/04/16 09:16:14;;;;;;;;;;;;;;;6.17;59.66;102558.59;4921956;29;1249;-95
2022/04/16 09:18:40;;;;;;;;;;;;;;;6.18;59.78;102556.78;4922062;29;1195;-95
2022/04/16 09:21:07;;;;;;;;;;;;;;;6.19;59.53;102551.28;4920174;29;2305;-95
2022/04/16 09:23:34;;;;;;;;;;;;;;;6.20;59.74;102552.97;4921979;29;1325;-95
2022/04/16 09:26:00;;;;;;;;;;;;;;;6.21;59.72;102545.81;4921352;29;2263;-95
2022/04/16 09:28:27;;;;;;;;;;;;;;;6.21;59.49;102546.66;4921800;29;1238;-95
2022/04/16 09:30:53;;;;;;;;;;;;;;;6.22;59.84;102542.13;4921755;29;1207;-96
2022/04/16 09:33:20;;;;;;;;;;;;;;;6.23;59.77;102543.81;4921541;29;2314;-95
2022/04/16 09:35:47;;;;;;;;;;;;;;;6.22;59.84;102537.63;4921942;29;1197;-96
2022/04/16 09:38:14;;;;;;;;;;;;;;;6.23;59.52;102539.31;4916009;29;2329;-96
2022/04/16 09:40:41;;;;;;;;;;;;;;;6.24;59.64;102541.00;4918389;29;1179;-96
2022/04/16 09:43:07;;;;;;;;;;;;;;;6.28;59.57;102538.88;4917714;29;2122;-96
2022/04/16 09:45:34;;;;;;;;;;;;;;;6.29;59.60;102532.53;4937279;29;2627;-96
2022/04/16 09:48:00;;;;;;;;;;;;;;;6.30;59.79;102536.94;4914511;29;1214;-96
2022/04/16 09:50:27;;;;;;;;;;;;;;;6.32;59.90;102524.22;4930697;29;1317;-95
2022/04/16 09:52:53;;;;;;;;;;;;;;;6.28;59.92;102534.38;4918001;29;1190;-96
2022/04/16 09:55:20;;;;;;;;;;;;;;;6.28;59.68;102518.31;4913427;29;2534;-96
2022/04/16 09:57:47;;;;;;;;;;;;;;;6.30;59.70;102527.06;4917425;29;2129;-96
2022/04/16 10:00:14;;;;;;;;;;;;;;;6.32;60.05;102534.94;4918395;29;1214;-96
2022/04/16 10:02:41;;;;;;;;;;;;;;;6.35;60.01;102530.16;4918571;29;1335;-95
2022/04/16 10:05:07;;;;;;;;;;;;;;;6.37;60.04;102524.66;4917257;29;2238;-96
2022/04/16 10:07:34;;;;;;;;;;;;;;;6.37;60.12;102513.94;4918076;29;1265;-96
2022/04/16 10:10:03;;;;;;;;;;;;;;;6.36;60.19;102518.44;4916160;29;2286;-95
2022/04/16 10:15:19;;;;;;;;;;;;;;;6.37;59.89;102524.66;4893322;29;2442;-96
2022/04/16 10:17:46;;;;;;;;;;;;;;;6.41;60.00;102520.69;4918160;29;1329;-96
2022/04/16 10:20:12;;;;;;;;;;;;;;;6.44;59.79;102507.03;4918280;29;1278;-96
2022/04/16 10:22:39;;;;;;;;;;;;;;;6.45;60.07;102500.69;4917861;29;1253;-96
2022/04/16 10:25:05;;;;;;;;;;;;;;;6.43;59.91;102497.28;4905290;29;2017;-96
2022/04/16 10:27:32;;;;;;;;;;;;;;;6.44;60.12;102507.03;4918029;29;1902;-96
2022/04/16 10:29:58;;;;;;;;;;;;;;;6.44;60.29;102492.78;4918189;29;1186;-96
2022/04/16 10:32:25;;;;;;;;;;;;;;;6.43;60.15;102496.47;4917656;29;1224;-96
2022/04/16 10:34:51;;;;;;;;;;;;;;;6.44;60.08;102487.44;4914925;29;2285;-96
2022/04/16 10:37:18;;;;;;;;;;;;;;;6.46;60.59;102496.16;4908511;29;1355;-96
2022/04/16 10:39:45;;;;;;;;;;;;;;;6.49;60.03;102491.34;4918430;29;1405;-96
2022/04/16 10:42:11;;;;;;;;;;;;;;;6.51;60.28;102492.06;4920127;29;2340;-96
2022/04/16 10:44:38;;;;;;;;;;;;;;;6.54;60.45;102494.44;4918428;29;4117;-96
2022/04/16 10:47:05;;;;;;;;;;;;;;;6.55;60.36;102489.94;4914442;29;1907;-96
2022/04/16 10:49:33;;;;;;;;;;;;;;;6.58;60.31;102487.81;4902569;29;1173;-96
2022/04/16 10:52:00;;;;;;;;;;;;;;;6.58;60.19;102487.81;4917579;29;1489;-96
2022/04/16 10:54:27;;;;;;;;;;;;;;;6.60;60.23;102491.19;4931687;29;2413;-96
2022/04/16 10:56:54;;;;;;;;;;;;;;;6.63;60.65;102486.53;4925028;29;2308;-96
2022/04/16 10:59:20;;;;;;;;;;;;;;;6.63;60.34;102479.34;4904768;29;1262;-96
2022/04/16 11:01:47;;;;;;;;;;;;;;;6.64;60.37;102466.78;4905105;29;1327;-96
2022/04/16 11:04:14;;;;;;;;;;;;;;;6.64;60.40;102473.00;4912607;29;1243;-96
2022/04/16 11:06:41;;;;;;;;;;;;;;;6.68;60.92;102466.38;4927692;29;1978;-96
2022/04/16 11:09:08;;;;;;;;;;;;;;;6.69;60.68;102467.22;4928073;29;2035;-96
2022/04/16 11:11:38;;;;;;;;;;;;;;;6.68;60.64;102468.22;4927616;29;3470;-96
2022/04/16 11:14:05;;;;;;;;;;;;;;;6.68;60.80;102476.25;4929080;29;1445;-96
2022/04/16 11:16:32;;;;;;;;;;;;;;;6.69;60.92;102467.22;4930647;29;1171;-96
2022/04/16 11:18:59;;;;;;;;;;;;;;;6.72;60.78;102459.72;4929009;29;1784;-96
2022/04/16 11:21:25;;;;;;;;;;;;;;;6.75;60.73;102458.56;4944727;29;1222;-96
2022/04/16 11:23:52;;;;;;;;;;;;;;;6.76;60.70;102455.72;4945610;29;1430;-96
2022/04/16 11:34:32;;;;;;;;;;;;;;;6.86;61.29;102454.88;4947557;29;1292;-96
2022/04/16 11:36:59;;;;;;;;;;;;;;;6.82;61.14;102452.50;4946498;29;1235;-96
2022/04/16 11:39:26;;;;;;;;;;;;;;;6.80;61.32;102441.06;4913891;29;1809;-96
2022/04/16 11:41:53;;;;;;;;;;;;;;;6.86;61.26;102447.66;4930712;29;1191;-96
2022/04/16 11:44:19;;;;;;;;;;;;;;;6.83;61.45;102434.59;4931580;29;1301;-96
2022/04/16 11:46:46;;;;;;;;;;;;;;;6.87;61.26;102443.16;4931213;29;1910;-96
2022/04/16 11:49:13;;;;;;;;;;;;;;;6.90;61.49;102445.53;4928052;29;1382;-96
2022/04/16 11:51:40;;;;;;;;;;;;;;;6.90;61.10;102446.38;4910727;29;1281;-96
2022/04/16 11:54:07;;;;;;;;;;;;;;;6.93;61.20;102430.00;4918985;29;1260;-96
2022/04/16 11:56:34;;;;;;;;;;;;;;;6.98;61.42;102437.59;4931504;29;1163;-96
2022/04/16 11:59:01;;;;;;;;;;;;;;;6.99;61.60;102442.78;4929693;29;1371;-96
2022/04/16 12:01:27;;;;;;;;;;;;;;;7.01;61.34;102438.13;4927728;29;1258;-96
2022/04/16 12:03:56;;;;;;;;;;;;;;;7.03;61.71;102436.16;4927496;29;1721;-96
2022/04/16 12:06:22;;;;;;;;;;;;;;;7.06;61.53;102440.38;4928010;29;2002;-96
2022/04/16 12:08:49;;;;;;;;;;;;;;;7.07;61.64;102438.53;4928315;29;1407;-96
2022/04/16 12:11:15;;;;;;;;;;;;;;;7.10;61.71;102439.06;4928868;29;1591;-96
2022/04/16 12:13:42;;;;;;;;;;;;;;;7.12;61.75;102436.22;4929141;29;1361;-96
2022/04/16 12:16:09;;;;;;;;;;;;;;;7.12;61.82;102437.09;4928750;29;1190;-96
2022/04/16 12:18:35;;;;;;;;;;;;;;;7.16;61.61;102442.97;4926385;29;1176;-96
2022/04/16 12:21:02;;;;;;;;;;;;;;;7.17;61.90;102437.47;4928940;29;1754;-96
2022/04/16 12:23:29;;;;;;;;;;;;;;;7.17;61.89;102432.09;4929820;29;1266;-96
2022/04/16 12:25:55;;;;;;;;;;;;;;;7.17;62.08;102432.09;4926157;29;1919;-96
2022/04/16 12:28:22;;;;;;;;;;;;;;;7.20;62.03;102447.03;4930019;29;1290;-96
2022/04/16 12:30:49;;;;;;;;;;;;;;;7.22;61.80;102437.00;4943143;29;1326;-96
2022/04/16 12:33:16;;;;;;;;;;;;;;;7.24;61.82;102432.34;4913217;29;1424;-96
2022/04/16 12:35:45;;;;;;;;;;;;;;;7.26;62.12;102430.34;4912917;29;1284;-96
2022/04/16 12:38:17;;;;;;;;;;;;;;;7.28;62.15;102434.56;4912261;29;1232;-96
2022/04/16 12:40:44;;;;;;;;;;;;;;;7.31;62.29;102432.59;4934794;29;1288;-96
2022/04/16 12:43:11;;;;;;;;;;;;;;;7.34;61.84;102427.75;4930365;29;1320;-96
2022/04/16 12:45:37;;;;;;;;;;;;;;;7.36;62.19;102428.44;4930117;29;1356;-96
2022/04/16 12:48:04;;;;;;;;;;;;;;;7.37;62.39;102421.25;4946991;29;1958;-96
2022/04/16 12:50:33;;;;;;;;;;;;;;;7.40;62.48;102423.63;4931444;29;1238;-96
2022/04/16 12:53:00;;;;;;;;;;;;;;;7.42;62.37;102422.47;4930071;29;1292;-96
2022/04/16 12:55:28;;;;;;;;;;;;;;;7.42;62.41;102417.13;4927305;29;1785;-96
2022/04/16 12:57:55;;;;;;;;;;;;;;;7.44;62.27;102417.81;4928643;29;1282;-96
2022/04/16 13:00:23;;;;;;;;;;;;;;;7.45;62.32;102414.13;4931033;29;1380;-96
2022/04/16 13:02:50;;;;;;;;;;;;;;;7.48;62.54;102411.13;4932582;29;1378;-96
2022/04/16 13:05:17;;;;;;;;;;;;;;;7.50;62.54;102413.69;4932116;29;1687;-96
2022/04/16 13:07:44;;;;;;;;;;;;;;;7.51;62.61;102404.63;4927397;29;1948;-96
2022/04/16 13:10:11;;;;;;;;;;;;;;;7.55;62.39;102413.19;4930382;29;1335;-96
2022/04/16 13:12:38;;;;;;;;;;;;;;;7.55;62.38;102407.84;4928722;29;1312;-96
2022/04/16 13:15:05;;;;;;;;;;;;;;;7.57;62.63;102401.31;4928507;29;1398;-96
2022/04/16 13:17:32;;;;;;;;;;;;;;;7.59;62.38;102395.78;4928181;29;1349;-96